Tuesday, June 28, 2016
09:37 UTC
  |  Log In   |  Register Free
Airport Search:

Enid Woodring Regional Airport
(KWDG)

FAA data valid effective May 26 2016 - Jul 21 2016 (unless otherwise noted).

 
 
 
 
 
 
 
 
 
 
 
 
 
 
Current Aviation Weather for KWDG

Weather Summary


The most recent METAR observation for WDG was updated at: 12:50 UTC
METAR for KWDG is not available. Closest METAR is for KEND
KWDG  (most recent observation was updatred at 28:09 UTC)
280915Z AUTO 00000KT 10SM 23/22 A3009 RMK AO2

KEND  (6.6 nm NE)   (most recent observation was updated at 28:08 UTC)
280858Z AUTO 00000KT 10SM CLR 23/22 A3010 RMK AO2 RAB0758 SLP179 P0000 60000 T02310221 55007 $

TAF for KWDG is not available.
KEND  (6.6 nm NE)   (most recent observation was updatred at 28:01 UTC)
AMD 280110Z 2801/2824 20012G18KT 6000 -TSRA BKN030CB BKN200 QNH3004INS TEMPO 2801/2802 4800 -TSRA OVC015CB BECMG 2801/2802 VRB06KT 9999 NSW SCT120 SCT250 QNH3006INS BECMG 2814/2815 10009KT 9999 BKN200 QNH3005INS TX33/2821Z TN23/2811Z AMD 280110 LAST NO AMDS AFT 2801 NEXT 2810


GlobalAir.com is loading additional information.
 Current Weather at WDG
73.0 F° (23.0 C°)

North winds at 0.0 mph
Pressure:
30.10 in
Humidity:
94%
Wind:
North at 0.0 mph
Dew Point:
71.6 F° (22.0 C°)
Visibility:
10.00 mi
WDG NOAA Radar




Find All Airport Services Find A Hotel Find A Rental Car Find A Golf Course Find A Restaurant $100 Hamburger



Airport Weather Forecast for KWDG

Translated METAR for KWDG (0915 UTC)
METAR:
KWDG 280915Z AUTO 00000KT 10SM 23/22 A3009 RMK AO2
Conditions at:
KWDG (Enid Woodring Rgnl, OK) observed 0915 UTC 28 June 2016
Temperature:
23°C (73.4°F)
Dewpoint:
22°C (71.6°F) [RH = 94.1]
Pressure:
30.09 inches Hg (1019 mb)
Winds:
from the N (000 degrees) at 0 mph (0 knots: 0 m/s)
Visibility:
10 mile(s)
Ceiling:
at least 12,000 feet AGL
Clouds:
not reported - refer to area weather report
Remarks:
site is un-manned
site is automated and HAS a precipitation sensor

Translated TAF for KEND (Vance Afb, OK) (0110 UTC)
TAF text:
KEND 280110Z 2801/2824 20012G18KT 6000 -TSRA BKN030CB BKN200 QNH3004INS
Forecast period:
Tuesday Jun 28 2016 01:00 UTC - Tuesday Jun 28 2016 24:00 UTC
Forecast type:
FROM: standard forecast or significant change
Winds:
from the SSW (200 degrees) at 13.8 mph (12 knots: 6.2 m/s)
gusting to 20.7 mph (18 knots: 9.3 m/s)
Visibility:
Ceiling:
20,000 feet AGL
Clouds:
Broken Cloud Cover at 20,000 feet AGL
Weather:
Light Thunderstorm Rain
TAF text:
2801/2802 4800 -TSRA OVC015CB BECMG 2801/2802 VRB06KT 9999 NSW SCT120 SCT250 QNH3006INS BECMG 2814/2815 10009KT 9999 BKN200 QNH3005INS TX33/2821Z TN23/2811Z 280110 LAST NO AMDS AFT 2801 NEXT 2810
Forecast period:
Wednesday Jun 29 2016 01:00 UTC - Wednesday Jun 29 2016 02:00 UTC
Forecast type:
FROM: standard forecast or significant change
Winds:
from the E (100 degrees) at 10.4 mph (9 knots: 4.6 m/s)
Visibility:
Ceiling:
at least 12,000 feet AGL
20,000 feet AGL
Clouds:
Scattered Clouds at 12,000 feet AGL
Scattered Clouds at 25,000 feet AGL
Broken Cloud Cover at 20,000 feet AGL
Weather:
Light Thunderstorm Rain
FBO's on the Field
FBO Company Facility Photos Services Transportation Aviation Fuel Prices: Prices include tax
Catering Weather Repair Courtesy Rental Type 100LL JetA JetA+ MOGAS 8087
 
Enid Woodring Regional Airport

This FBO has not yet been rated
FS:Phillips 66
Last Updated: May-31
Login to update fuel prices
SS:
Contact Enid Woodring Regional AirportMore FBO Information
 
Add another FBO Facility Photos Catering Weather Repair Courtesy Rental Type 100LL JetA JetA+ MOGAS 8087
Services Transportation Aviation Fuel Prices: Prices include tax


model-print
model-print
model-print
model-print